Terminal Aerodrome Forecast
Issued by NWS

Home | Current Version | Previous Version | Text Only | Print | Product List | Glossary On
Versions: 1 2 3 4 5 6 7 8 9 10 11 12 13 14 15 16 17 18
000
FTUS41 KCAR 051723
TAFHUL
TAF
KHUL 051723Z 0518/0618 00000KT P6SM BKN100
     FM060000 00000KT P6SM OVC030
     FM060300 00000KT P6SM OVC015
     FM060700 34005KT P6SM BKN025
     FM060800 33005KT P6SM BKN050=

USA.gov is the U.S. government's official web portal to all federal, state and local government web resources and services.